หน้าหลัก
METAR-TAF:

METAR-TAF

ท่าอากาศยาน :

เอ็กซิเตอร์, อังกฤษ

ละติจูด: 50-44N, ลองจิจูด: 003-25W, ความสูง: 30 ม.

การสังเกตสภาพอากาศปัจจุบัน

รายงานได้ทำขึ้นเมื่อ 3 ชั่วโมงและ 18 นาทีที่แล้ว ณ เวลา 01:20 UTC
ลม 1 นอตจากตะวันออก
อุณหภูมิ 6°C
ความชื้น 93%
ความกดอากาศ 1018 hPa
ทัศนวิสัย 10 กม. หรือมากกว่า
ไม่มีเมฆต่ำกว่า 1,500 ม. และไม่มีเมฆคิวมูโลนิมบัส

METAR: EGTE 130120Z 09001KT CAVOK 06/05 Q1018

เวลา: 05:38 (04:38 UTC)

การพยากรณ์

รายงานได้ทำขึ้นเมื่อ 5 ชั่วโมงและ 42 นาทีที่แล้ว ณ เวลา 22:56 UTC
การพยากรณ์มีผลตั้งแต่วันที่ 13 ณ เวลา 00 UTC จนถึงวันที่ 13 ณ เวลา 02 UTC
ลม 3 นอตจากทิศทางซึ่งแปรผันได้
ทัศนวิสัย 10 กม. หรือมากกว่า
มีเมฆน้อยที่ความสูง 4500 ฟุต
ความน่าจะเป็น 30%
ตั้งแต่วันที่ 13 ณ เวลา 00 UTC จนถึงวันที่ 13 ณ เวลา 02 UTC
ทัศนวิสัย: 7000 ม.

TAF: EGTE 122256Z 1300/1302 VRB03KT 9999 FEW045 PROB30 1300/1302 7000

สังเกตการณ์สภาพอากาศและพยากรณ์อากาศของสนามบินมากกว่า 4000 แห่ง (รายงาน METAR และ TAF).

สถานีที่ดูได้จะแสดงไว้ด้วยจุดสีเหลืองและสีแดงบนแผนที่.

เลื่อนเมาส์ไปเหนือจุดเพื่อดูชื่อสถานี.

แล้วคลิกเพื่อดูสังเกตการณ์และการพยากรณ์สภาพอากาศ.

ในการเปลี่ยนแผนที่: คลิกที่ปุ่มสีเขียวที่มีกากบาทสีดำเพื่อซูมเข้า; ที่ปุ่มสีเขียวที่มีขีดเพื่อซูมออก; หรือที่ลูกศรสีเขียวเพื่อไปยังแผนที่ที่อยู่ติดกัน.


METAR-TAF: